Austin, TX

2:38 AM CDT on August 28, 2016 (GMT -0500)
West End | | Change Station

Elev 564 ft 30.28 °N, 97.75 °W | Updated 8 seconds ago

Mostly Cloudy
Mostly Cloudy
79.0 °F
Feels Like 82 °F
N
0.0
Wind Variable Wind from ENE
Gusts 0.0 mph

Today
High -- | Low -- °F
--% Chance of Precip.
Yesterday
High -- | Low -- °F
Precip. -- in
Pressure 29.98 in
Visibility 10.0 miles
Clouds Mostly Cloudy 4400 ft
Heat Index 82 °F
Dew Point 70 °F
Humidity 75%
Rainfall 0.00 in
Snow Depth Not available.
7:05 AM 7:57 PM
Waning Crescent, 17% visible
METAR KATT 280651Z AUTO 12003KT 10SM BKN044 26/22 A3002 RMK AO2 SLP151 T02560222
Pressure 29.98 in
Visibility 10.0 miles
Clouds Mostly Cloudy 4400 ft
Heat Index 82 °F
Dew Point 70 °F
Humidity 75%
Rainfall 0.00 in
Snow Depth Not available.
7:05 AM 7:57 PM
Waning Crescent, 17% visible
METAR KATT 280651Z AUTO 12003KT 10SM BKN044 26/22 A3002 RMK AO2 SLP151 T02560222

10-Day Weather Forecast

Almanac

Astronomy

Aug. 28, 2016 Rise Set
Actual Time
Civil Twilight
Nautical Twilight
Astronomical Twilight
Moon
Length of Visible Light
Length of Day
Tomorrow will be .
, % of the Moon is Illuminated

Today's Extremes

State Highs State Lows

Community

WunderPhotos

Upload Photos

1,935,533 photos uploaded!

WunderBlog® & News

Nearby

Air Quality

  Air Quality AQ Index Pollutant
Not available.

Snow Depth

Station Depth Elevation

Earthquake Activity

City Distance Mag. Time & Date
Minimum magnitude displayed is 2.5.

Coastal Water Temperatures

Place Temperature

Stations

Nearby Weather Stations

Station Location Temp. Windchill Dew Point Humidity Wind Precip. Elev Updated Type
                   

Watches & Warnings

There are currently no watches in effect.